createdAt,value
2018-09-11T08:07:53.789Z,101701.38
2018-09-11T08:10:21.121Z,101699.02
2018-09-11T08:12:48.466Z,101710.41
2018-09-11T08:15:15.861Z,101707.27
2018-09-11T08:17:43.326Z,101700.33
2018-09-11T08:20:10.618Z,101701.82
2018-09-11T08:22:37.895Z,101703.25
2018-09-11T08:25:05.581Z,101695.84
2018-09-11T08:27:32.885Z,101701.81
2018-09-11T08:30:00.488Z,101696.14
2018-09-11T08:32:28.642Z,101698.45
2018-09-11T08:34:56.129Z,101706.66
2018-09-11T08:37:23.564Z,101718.92
2018-09-11T08:39:50.957Z,101719.73
2018-09-11T08:42:18.397Z,101732.09
2018-09-11T08:44:45.688Z,101736.83
2018-09-11T08:47:13.047Z,101742.23
2018-09-11T08:49:40.550Z,101738.20
2018-09-11T08:52:07.928Z,101739.08
2018-09-11T08:54:35.805Z,101747.30
2018-09-11T08:57:03.109Z,101738.44
2018-09-11T08:59:30.633Z,101735.25
2018-09-11T09:01:58.083Z,101730.19
2018-09-11T09:04:31.258Z,101735.25
2018-09-11T09:06:59.084Z,101737.58
2018-09-11T09:09:26.661Z,101735.89
2018-09-11T09:11:54.058Z,101738.72
2018-09-11T09:14:21.528Z,101749.94
2018-09-11T09:16:49.184Z,101757.52
2018-09-11T09:19:16.620Z,101764.77
2018-09-11T09:21:43.957Z,101771.23
2018-09-11T09:24:11.348Z,101775.05
2018-09-11T09:26:38.673Z,101785.89
2018-09-11T09:29:06.025Z,101782.56
2018-09-11T09:31:33.372Z,101772.11
2018-09-11T09:34:01.418Z,101770.33
2018-09-11T09:36:28.752Z,101773.47
2018-09-11T09:38:56.108Z,101778.91
2018-09-11T09:41:24.237Z,101773.59
2018-09-11T09:43:51.730Z,101770.38
2018-09-11T09:46:19.904Z,101765.42
2018-09-11T09:48:47.334Z,101779.23
2018-09-11T09:51:14.765Z,101778.52
2018-09-11T09:53:42.106Z,101770.98
2018-09-11T09:56:09.417Z,101780.50
2018-09-11T09:58:37.558Z,101769.20
2018-09-11T10:01:10.575Z,101768.58
2018-09-11T10:03:37.889Z,101778.93
2018-09-11T10:06:05.220Z,101768.24
2018-09-11T10:08:32.946Z,101765.61
2018-09-11T10:11:00.427Z,101771.70
2018-09-11T10:13:28.589Z,101769.17
2018-09-11T10:15:55.893Z,101780.50
2018-09-11T10:18:24.238Z,101759.86
2018-09-11T10:20:51.626Z,101761.77
2018-09-11T10:23:19.028Z,101756.18
2018-09-11T10:25:46.478Z,101754.31
2018-09-11T10:28:13.922Z,101762.80
2018-09-11T10:30:41.518Z,101758.98
2018-09-11T10:33:08.903Z,101780.78
2018-09-11T10:35:36.276Z,101781.25
2018-09-11T10:38:03.882Z,101759.52
2018-09-11T10:40:31.576Z,101764.01
2018-09-11T10:42:59.124Z,101763.94
2018-09-11T10:45:27.271Z,101766.61
2018-09-11T10:47:55.767Z,101770.63
2018-09-11T10:50:23.063Z,101760.23
2018-09-11T10:52:50.457Z,101740.92
2018-09-11T10:55:17.796Z,101758.70
2018-09-11T10:57:45.353Z,101748.70
2018-09-11T11:00:12.855Z,101749.56
2018-09-11T11:02:40.554Z,101754.70
2018-09-11T11:05:08.164Z,101748.75
2018-09-11T11:10:13.523Z,101748.73
2018-09-11T11:12:41.043Z,101753.28
2018-09-11T11:15:08.547Z,101765.80
2018-09-11T11:17:35.933Z,101756.59
2018-09-11T11:20:03.203Z,101758.67
2018-09-11T11:22:30.799Z,101758.77
2018-09-11T11:24:58.173Z,101749.03
2018-09-11T11:27:25.551Z,101735.92
2018-09-11T11:29:53.663Z,101740.01
2018-09-11T11:32:21.270Z,101740.33
2018-09-11T11:34:48.573Z,101740.59
2018-09-11T11:37:16.117Z,101735.21
2018-09-11T11:39:43.421Z,101722.44
2018-09-11T11:42:11.068Z,101722.17
2018-09-11T11:44:38.470Z,101729.66
2018-09-11T11:47:06.083Z,101743.71
2018-09-11T11:49:33.542Z,101760.77
2018-09-11T11:52:01.139Z,101756.30
2018-09-11T11:54:28.477Z,101763.30
2018-09-11T11:56:55.814Z,101760.34
2018-09-11T11:59:23.287Z,101764.27
2018-09-11T12:01:50.873Z,101763.39
2018-09-11T12:04:18.245Z,101765.63
2018-09-11T12:06:45.643Z,101769.68
2018-09-11T12:09:13.063Z,101763.08
2018-09-11T12:11:40.598Z,101764.97
2018-09-11T12:14:07.997Z,101765.50
2018-09-11T12:16:35.348Z,101770.02
2018-09-11T12:19:02.731Z,101763.80
2018-09-11T12:21:30.219Z,101757.65
2018-09-11T12:23:57.642Z,101761.24
2018-09-11T12:26:25.683Z,101744.31
2018-09-11T12:28:53.582Z,101740.70
2018-09-11T12:31:21.122Z,101743.58
2018-09-11T12:33:50.533Z,101736.09
2018-09-11T12:36:17.841Z,101732.98
2018-09-11T12:38:45.340Z,101734.41
2018-09-11T12:41:12.675Z,101750.47
2018-09-11T12:43:40.223Z,101740.05
2018-09-11T12:46:07.966Z,101740.09
2018-09-11T12:48:35.393Z,101737.17
2018-09-11T12:51:02.632Z,101740.89
2018-09-11T12:53:30.089Z,101739.11
2018-09-11T12:55:57.541Z,101739.34
2018-09-11T12:58:24.991Z,101730.70
2018-09-11T13:00:52.414Z,101741.09
2018-09-11T13:03:20.374Z,101730.22
2018-09-11T13:05:47.799Z,101722.46
2018-09-11T13:08:15.126Z,101732.00
2018-09-11T13:10:42.523Z,101730.38
2018-09-11T13:13:09.880Z,101740.27
2018-09-11T13:15:37.965Z,101729.73
2018-09-11T13:18:05.320Z,101739.00
2018-09-11T13:20:32.736Z,101733.12
2018-09-11T13:23:00.260Z,101733.30
2018-09-11T13:25:27.804Z,101740.78
2018-09-11T13:27:55.191Z,101746.34
2018-09-11T13:30:22.643Z,101755.14
2018-09-11T13:32:50.033Z,101741.27
2018-09-11T13:35:17.315Z,101744.46
2018-09-11T13:37:44.678Z,101741.55
2018-09-11T13:40:12.159Z,101732.79
2018-09-11T13:42:39.637Z,101737.54
2018-09-11T13:45:07.086Z,101731.90
2018-09-11T13:47:34.618Z,101731.73
2018-09-11T13:50:01.966Z,101749.15
2018-09-11T13:52:29.356Z,101743.89
2018-09-11T13:54:56.682Z,101743.33
2018-09-11T13:57:24.109Z,101736.02
2018-09-11T13:59:52.276Z,101738.74
2018-09-11T14:02:20.000Z,101742.14
2018-09-11T14:04:47.366Z,101734.50
2018-09-11T14:07:15.142Z,101731.31
2018-09-11T14:09:43.081Z,101728.23
2018-09-11T14:12:10.521Z,101720.02
2018-09-11T14:14:37.864Z,101722.07
2018-09-11T14:17:05.388Z,101716.83
2018-09-11T14:19:32.795Z,101717.20
2018-09-11T14:22:00.234Z,101711.48
2018-09-11T14:24:27.820Z,101707.70
2018-09-11T14:26:55.695Z,101694.03
2018-09-11T14:29:23.153Z,101699.20
2018-09-11T14:31:50.638Z,101704.97
2018-09-11T14:34:18.728Z,101693.42
2018-09-11T14:36:46.272Z,101700.02
2018-09-11T14:39:13.995Z,101699.89
2018-09-11T14:41:41.377Z,101707.50
2018-09-11T14:44:09.014Z,101710.60
2018-09-11T14:46:36.763Z,101709.36
2018-09-11T14:49:04.648Z,101704.38
2018-09-11T14:51:32.278Z,101717.70
2018-09-11T14:54:00.101Z,101708.45
2018-09-11T14:56:27.625Z,101705.25
2018-09-11T14:58:55.918Z,101708.52
2018-09-11T15:01:23.848Z,101709.75
2018-09-11T15:03:51.455Z,101711.50
2018-09-11T15:06:18.993Z,101714.38
2018-09-11T15:08:46.915Z,101721.59
2018-09-11T15:11:14.673Z,101715.92
2018-09-11T15:13:42.414Z,101717.49
2018-09-11T15:16:10.094Z,101728.72
2018-09-11T15:18:37.810Z,101722.35
2018-09-11T15:21:05.295Z,101724.12
2018-09-11T15:23:32.779Z,101721.19
2018-09-11T15:26:00.353Z,101714.61
2018-09-11T15:28:27.782Z,101716.66
2018-09-11T15:30:55.306Z,101721.72
2018-09-11T15:33:23.046Z,101712.97
2018-09-11T15:35:54.689Z,101715.06
2018-09-11T15:38:22.570Z,101710.28
2018-09-11T15:40:50.444Z,101708.37
2018-09-11T15:43:18.203Z,101707.23
2018-09-11T15:45:46.423Z,101710.06
2018-09-11T15:48:14.579Z,101712.62
2018-09-11T15:50:42.440Z,101709.40
2018-09-11T15:53:09.877Z,101702.35
2018-09-11T15:55:37.519Z,101709.70
2018-09-11T15:58:04.882Z,101709.62
2018-09-11T16:00:32.283Z,101708.29
2018-09-11T16:03:00.476Z,101716.32
2018-09-11T16:05:27.899Z,101712.67
2018-09-11T16:07:55.760Z,101708.45
2018-09-11T16:10:23.324Z,101701.57
2018-09-11T16:12:50.810Z,101716.61
2018-09-11T16:15:18.171Z,101714.63
2018-09-11T16:17:45.693Z,101695.73
2018-09-11T16:20:13.461Z,101706.25
2018-09-11T16:22:41.250Z,101704.71
2018-09-11T16:25:08.643Z,101708.48
2018-09-11T16:27:36.143Z,101710.47
2018-09-11T16:30:03.830Z,101707.75
2018-09-11T16:32:31.246Z,101704.78
2018-09-11T16:34:58.705Z,101701.84
2018-09-11T16:37:26.054Z,101703.48
2018-09-11T16:39:53.492Z,101706.38
2018-09-11T16:42:21.004Z,101697.28
2018-09-11T16:44:48.409Z,101698.28
2018-09-11T16:47:15.860Z,101690.13
2018-09-11T16:49:43.593Z,101697.72
2018-09-11T16:52:10.981Z,101700.02
2018-09-11T16:54:38.329Z,101686.00
2018-09-11T16:57:05.669Z,101680.94
2018-09-11T16:59:33.906Z,101675.06
2018-09-11T17:02:02.130Z,101679.92
2018-09-11T17:04:29.624Z,101677.72
2018-09-11T17:06:57.082Z,101668.70
2018-09-11T17:09:25.095Z,101675.52
2018-09-11T17:11:52.704Z,101674.02
2018-09-11T17:14:20.151Z,101673.54
2018-09-11T17:16:47.564Z,101669.53
2018-09-11T17:19:15.161Z,101670.51
2018-09-11T17:21:42.609Z,101676.34
2018-09-11T17:24:10.478Z,101680.28
2018-09-11T17:26:38.450Z,101682.38
2018-09-11T17:29:05.800Z,101679.38
2018-09-11T17:31:33.202Z,101671.66
2018-09-11T17:34:00.541Z,101679.61
2018-09-11T17:36:28.123Z,101688.04
2018-09-11T17:38:55.810Z,101686.12
2018-09-11T17:41:23.303Z,101684.56
2018-09-11T17:43:51.287Z,101680.28
2018-09-11T17:46:18.818Z,101673.68
2018-09-11T17:48:46.376Z,101682.91
2018-09-11T17:51:14.251Z,101679.67
2018-09-11T17:53:41.700Z,101675.11
2018-09-11T17:56:09.280Z,101676.41
2018-09-11T17:58:36.852Z,101681.41
2018-09-11T18:01:04.467Z,101678.30
2018-09-11T18:03:32.014Z,101677.56
2018-09-11T18:06:00.577Z,101685.49
2018-09-11T18:08:28.319Z,101684.35
2018-09-11T18:10:55.964Z,101689.78
2018-09-11T18:13:23.741Z,101679.59
2018-09-11T18:15:52.429Z,101681.22
2018-09-11T18:18:21.511Z,101686.64
2018-09-11T18:20:48.876Z,101685.81
2018-09-11T18:23:16.727Z,101685.18
2018-09-11T18:25:45.137Z,101692.09
2018-09-11T18:28:12.573Z,101695.34
2018-09-11T18:30:40.170Z,101704.14
2018-09-11T18:33:07.736Z,101704.45
2018-09-11T18:35:35.064Z,101699.58
2018-09-11T18:38:02.584Z,101704.86
2018-09-11T18:40:29.882Z,101711.25
2018-09-11T18:42:57.441Z,101701.87
2018-09-11T18:45:24.822Z,101709.31
2018-09-11T18:47:52.512Z,101716.14
2018-09-11T18:50:19.887Z,101712.67
2018-09-11T18:52:47.483Z,101720.73
2018-09-11T18:55:15.430Z,101738.41
2018-09-11T18:57:42.821Z,101732.09
2018-09-11T19:00:10.452Z,101738.80
2018-09-11T19:02:37.800Z,101734.41
2018-09-11T19:05:05.213Z,101731.83
2018-09-11T19:07:32.674Z,101739.13
2018-09-11T19:10:00.031Z,101740.75
2018-09-11T19:12:27.637Z,101737.65
2018-09-11T19:14:55.593Z,101741.84
2018-09-11T19:17:22.874Z,101742.17
2018-09-11T19:19:50.253Z,101743.41
2018-09-11T19:22:17.720Z,101743.72
2018-09-11T19:24:45.194Z,101752.44
2018-09-11T19:27:13.289Z,101743.23
2018-09-11T19:29:40.710Z,101739.05
2018-09-11T19:32:08.035Z,101745.04
2018-09-11T19:34:35.378Z,101741.87
2018-09-11T19:37:02.775Z,101737.84
2018-09-11T19:39:30.180Z,101741.13
2018-09-11T19:41:57.513Z,101736.53
2018-09-11T19:44:25.720Z,101742.02
2018-09-11T19:46:53.168Z,101735.63
2018-09-11T19:49:20.487Z,101742.17
2018-09-11T19:51:48.526Z,101739.24
2018-09-11T19:54:15.905Z,101738.12
2018-09-11T19:56:43.373Z,101733.61
2018-09-11T19:59:10.855Z,101733.57
2018-09-11T20:01:38.163Z,101734.69
2018-09-11T20:04:05.506Z,101734.22
2018-09-11T20:06:32.769Z,101730.66
2018-09-11T20:09:00.276Z,101737.34
2018-09-11T20:11:27.617Z,101739.61
2018-09-11T20:13:55.045Z,101724.31
2018-09-11T20:16:22.409Z,101727.38
2018-09-11T20:18:56.151Z,101727.09
2018-09-11T20:21:39.508Z,101719.90
2018-09-11T20:24:07.791Z,101718.04
2018-09-11T20:26:35.180Z,101718.63
2018-09-11T20:29:02.568Z,101719.88
2018-09-11T20:31:29.993Z,101713.73
2018-09-11T20:33:57.583Z,101718.11
2018-09-11T20:36:25.191Z,101724.36
2018-09-11T20:38:52.506Z,101722.62
2018-09-11T20:41:24.063Z,101725.73
2018-09-11T20:43:51.715Z,101724.52
2018-09-11T20:46:19.068Z,101719.38
2018-09-11T20:48:46.585Z,101722.38
2018-09-11T20:51:13.893Z,101726.59
2018-09-11T20:53:41.275Z,101723.08
2018-09-11T20:56:08.651Z,101720.16
2018-09-11T20:58:36.638Z,101727.23
2018-09-11T21:01:03.982Z,101727.90
2018-09-11T21:03:31.330Z,101727.99
2018-09-11T21:05:58.863Z,101734.50
2018-09-11T21:08:26.414Z,101729.53
2018-09-11T21:10:53.756Z,101731.55
2018-09-11T21:13:21.159Z,101724.30
2018-09-11T21:15:48.578Z,101725.91
2018-09-11T21:18:16.024Z,101714.55
2018-09-11T21:20:43.389Z,101738.53
2018-09-11T21:23:11.054Z,101730.83
2018-09-11T21:25:39.463Z,101736.53
2018-09-11T21:28:07.633Z,101733.50
2018-09-11T21:30:35.000Z,101732.21
2018-09-11T21:33:02.408Z,101737.05
2018-09-11T21:35:29.851Z,101732.94
2018-09-11T21:37:58.101Z,101728.57
2018-09-11T21:40:25.530Z,101729.51
2018-09-11T21:42:53.160Z,101724.14
2018-09-11T21:45:21.606Z,101732.78
2018-09-11T21:47:49.002Z,101731.94
2018-09-11T21:50:16.672Z,101739.09
2018-09-11T21:52:44.009Z,101732.61
2018-09-11T21:55:11.441Z,101729.19
2018-09-11T21:57:38.767Z,101721.79
2018-09-11T22:00:08.688Z,101724.75
2018-09-11T22:02:36.539Z,101726.11
2018-09-11T22:05:03.967Z,101726.31
2018-09-11T22:07:31.523Z,101724.55
2018-09-11T22:09:58.984Z,101721.29
2018-09-11T22:12:26.249Z,101715.97
2018-09-11T22:14:53.625Z,101713.42
2018-09-11T22:17:21.547Z,101713.01
2018-09-11T22:19:48.905Z,101716.84
2018-09-11T22:22:16.355Z,101711.65
2018-09-11T22:24:43.826Z,101704.20
2018-09-11T22:27:11.133Z,101701.20
2018-09-11T22:29:38.513Z,101697.11
2018-09-11T22:32:05.928Z,101699.50
2018-09-11T22:34:33.345Z,101696.25
2018-09-11T22:37:00.634Z,101689.52
2018-09-11T22:39:27.930Z,101689.33
2018-09-11T22:41:55.352Z,101685.84
2018-09-11T22:44:22.755Z,101690.37
2018-09-11T22:46:50.123Z,101688.23
2018-09-11T22:49:17.449Z,101685.13
2018-09-11T22:51:44.738Z,101686.14
2018-09-11T22:54:12.279Z,101687.90
2018-09-11T22:56:39.970Z,101683.73
2018-09-11T22:59:07.382Z,101683.48
2018-09-11T23:01:34.797Z,101682.02
2018-09-11T23:04:02.269Z,101687.09
2018-09-11T23:06:29.633Z,101668.97
2018-09-11T23:08:57.137Z,101673.94
2018-09-11T23:11:24.416Z,101672.30
2018-09-11T23:13:51.774Z,101677.42
2018-09-11T23:16:19.073Z,101670.52
2018-09-11T23:18:46.477Z,101670.69
2018-09-11T23:21:13.858Z,101670.69
2018-09-11T23:23:42.973Z,101669.08
2018-09-11T23:26:10.247Z,101663.33
2018-09-11T23:28:37.589Z,101664.42
2018-09-11T23:31:04.856Z,101661.84
2018-09-11T23:33:32.115Z,101658.69
2018-09-11T23:35:59.411Z,101658.81
2018-09-11T23:38:26.701Z,101657.89
2018-09-11T23:40:54.002Z,101654.98
2018-09-11T23:43:21.396Z,101651.94
2018-09-11T23:45:48.755Z,101649.57
2018-09-11T23:48:16.157Z,101644.95
2018-09-11T23:50:43.503Z,101638.98
2018-09-11T23:53:10.854Z,101643.47
2018-09-11T23:55:38.087Z,101644.89
2018-09-11T23:58:05.385Z,101638.16
